Disney Magic — C6PT7 — position and weather

sailwx.info

Track history (hours):
 
Tides and Currents Weather Stations Pressure Air Temp Water Temp Dewpoint Dewpoint Depression Visibility Wind Speed Wind Dir Waves Ship Positions

Disney Magic

Last reported at 2015-Aug-31 04:33 UTC. Time now 2015-Aug-31 04:47 UTC.
Position N 40°49' E 014°17'.

Type: Passenger vessel. MMSI: 308516000.

Date/timePositionNaut miles runAvg speedWind from/ knotsBaromVisibWave heightAir tempDewpointWater temp
2015-Aug-31 04:33N 40°49' E 014°17'1414.3
2015-Aug-31 03:34N 40°39' E 014°03'1313.4
2015-Aug-31 02:33N 40°38' E 013°46'1515.3
2015-Aug-31 01:34N 40°42' E 013°26'1515.1
2015-Aug-31 00:34N 40°45' E 013°07'1515.3
2015-Aug-30 23:33N 40°49' E 012°47'1616.0
2015-Aug-30 22:33N 40°52' E 012°26'1515.3
2015-Aug-30 21:33N 40°56' E 012°07'1515.2
2015-Aug-30 20:33N 40°60' E 011°47'1915.3
2015-Aug-30 19:20N 41°04' E 011°23'5815.4
2015-Aug-30 15:34N 41°17' E 010°08'1714.4
2015-Aug-30 14:22N 41°21' E 009°46'1215.2
2015-Aug-30 13:33N 41°24' E 009°30'13614.8
2015-Aug-30 04:22N 41°19' E 006°29'6015.4
2015-Aug-30 00:26N 41°18' E 005°08'1515.4
2015-Aug-29 23:27N 41°18' E 004°48'4515.2
2015-Aug-29 20:31N 41°17' E 003°49'1515.4
2015-Aug-29 19:32N 41°17' E 003°29'1615.5
2015-Aug-29 18:32N 41°17' E 003°08'1515.4
2015-Aug-29 17:33N 41°17' E 002°48'1515.3
2015-Aug-29 16:33N 41°17' E 002°27'1313.0
2015-Aug-29 15:32N 41°19' E 002°10'2 0.2
2015-Aug-29 04:24N 41°21' E 002°11'0 0.0
2015-Aug-29 03:30N 41°21' E 002°11'5 5.2
2015-Aug-29 02:33N 41°17' E 002°11'8 7.6
2015-Aug-29 01:32N 41°15' E 002°22'9 8.8
2015-Aug-29 00:33N 41°15' E 002°33'9 8.6
2015-Aug-28 23:33N 41°17' E 002°44'9 8.6
2015-Aug-28 22:32N 41°18' E 002°56'9 8.6
2015-Aug-28 21:30N 41°21' E 003°07'8 8.5
2015-Aug-28 20:32N 41°23' E 003°18'9 8.5
2015-Aug-28 19:26N 41°32' E 003°21'8 8.8
2015-Aug-28 18:33N 41°40' E 003°23'8 8.1
2015-Aug-28 17:33N 41°45' E 003°32'9 8.5
2015-Aug-28 16:31N 41°49' E 003°42'8 7.8
2015-Aug-28 15:33N 41°53' E 003°51'27 8.6
2015-Aug-28 12:26N 42°05' E 004°23'48 8.2
2015-Aug-28 06:33N 42°27' E 005°21'9 9.2
2015-Aug-28 05:33N 42°31' E 005°32'10 9.5
2015-Aug-28 04:33N 42°36' E 005°43'10 9.5
2015-Aug-28 03:33N 42°40' E 005°55'9 9.5
2015-Aug-28 02:33N 42°44' E 006°06'9 8.2
2015-Aug-28 01:30N 42°48' E 006°17'9 8.8
2015-Aug-28 00:28N 42°52' E 006°28'8 9.1
2015-Aug-27 23:33N 42°56' E 006°38'9 9.2
2015-Aug-27 22:33N 43°00' E 006°49'9 8.5
2015-Aug-27 21:33N 43°04' E 006°59'8 8.4
2015-Aug-27 20:33N 43°08' E 007°10'9 8.5
2015-Aug-27 19:33N 43°13' E 007°19'9 8.9
2015-Aug-27 18:33N 43°22' E 007°19'9 9.0
2015-Aug-27 17:33N 43°31' E 007°19'9 9.1
2015-Aug-27 16:33N 43°40' E 007°19'1 1.3
2015-Aug-27 15:32N 43°41' E 007°19'0 0.0
2015-Aug-27 14:14N 43°41' E 007°19'0 0.0
2015-Aug-27 13:32N 43°41' E 007°19'0 0.0
2015-Aug-27 12:32N 43°41' E 007°19'0 0.0
2015-Aug-27 11:32N 43°41' E 007°19'0 0.0
2015-Aug-27 10:32N 43°41' E 007°19'0 0.0
2015-Aug-27 09:32N 43°41' E 007°19'0 0.0
2015-Aug-27 08:32N 43°41' E 007°19'0 0.0
2015-Aug-27 07:32N 43°41' E 007°19'0 0.0
2015-Aug-27 06:26N 43°41' E 007°19'0 0.0
2015-Aug-27 05:32N 43°41' E 007°19'1 1.4
2015-Aug-27 04:31N 43°40' E 007°19'6 6.1
2015-Aug-27 03:33N 43°38' E 007°26'8 8.0
2015-Aug-27 02:33N 43°37' E 007°38'1010.0
2015-Aug-27 01:33N 43°37' E 007°51'1110.4
2015-Aug-27 00:29N 43°36' E 008°07'1213.1
2015-Aug-26 23:33N 43°35' E 008°23'1817.6
2015-Aug-26 22:33N 43°35' E 008°48'1717.1
2015-Aug-26 21:33N 43°34' E 009°11'1717.0
2015-Aug-26 20:33N 43°33' E 009°35'1716.9
2015-Aug-26 19:33N 43°31' E 009°58'1413.9
2015-Aug-26 18:33N 43°32' E 010°17'1 1.0
2015-Aug-26 17:31N 43°33' E 010°18'0 0.0
2015-Aug-26 16:28N 43°33' E 010°18'0 0.0
2015-Aug-26 15:28N 43°33' E 010°18'0 0.0
2015-Aug-26 14:28N 43°33' E 010°18'0 0.0
2015-Aug-26 13:28N 43°33' E 010°18'0 0.0
2015-Aug-26 12:31N 43°33' E 010°18'0 0.0
2015-Aug-26 11:31N 43°33' E 010°18'0 0.0
2015-Aug-26 10:28N 43°33' E 010°18'0 0.0
2015-Aug-26 09:31N 43°33' E 010°18'214 5.8
2015-Aug-24 20:33N 40°44' E 013°16'2216.1
2015-Aug-24 19:12N 40°38' E 013°43'1015.5
2015-Aug-24 18:33N 40°37' E 013°56'1616.0
2015-Aug-24 17:33N 40°46' E 014°13'4 1.1
2015-Aug-24 13:32N 40°50' E 014°16'0 0.0
2015-Aug-24 12:26N 40°50' E 014°16'0 0.0
2015-Aug-24 11:32N 40°50' E 014°16'0 0.0
2015-Aug-24 10:29N 40°50' E 014°16'0 0.0
2015-Aug-24 09:32N 40°50' E 014°16'0 0.0
2015-Aug-24 08:32N 40°50' E 014°16'0 0.0
2015-Aug-24 07:32N 40°50' E 014°16'0 0.0
2015-Aug-24 06:32N 40°50' E 014°16'0 0.0
2015-Aug-24 05:23N 40°50' E 014°16'2 2.2
2015-Aug-24 04:33N 40°49' E 014°17'1914.3
2015-Aug-24 03:13N 40°38' E 013°57'1116.3
2015-Aug-24 02:32N 40°39' E 013°43'3817.4
2015-Aug-24 00:20N 40°47' E 012°53'16214.8
2015-Aug-23 13:20N 41°22' E 009°23'12515.3
2015-Aug-23 05:10N 41°19' E 006°36'6415.6
2015-Aug-23 01:06N 41°18' E 005°12'8815.8
2015-Aug-22 19:33N 41°17' E 003°15'1615.7
2015-Aug-22 18:33N 41°17' E 002°54'1615.7
2015-Aug-22 17:33N 41°16' E 002°33'1615.6
2015-Aug-22 16:33N 41°16' E 002°13'5 0.4
2015-Aug-22 03:22N 41°21' E 002°11'5 6.2
2015-Aug-22 02:33N 41°16' E 002°12'8 8.4
2015-Aug-22 01:33N 41°15' E 002°23'8 7.8
2015-Aug-22 00:31N 41°15' E 002°33'8 8.3
2015-Aug-21 23:30N 41°17' E 002°44'8 8.4
2015-Aug-21 22:30N 41°18' E 002°55'8 8.4
2015-Aug-21 21:33N 41°19' E 003°06'8 8.3
2015-Aug-21 20:33N 41°21' E 003°17'10 7.2
2015-Aug-21 19:13N 41°26' E 003°28'  
Track history (hours):
 
Tides and Currents Weather Stations Pressure Air Temp Water Temp Dewpoint Dewpoint Depression Visibility Wind Speed Wind Dir Waves Ship Positions

Disney Magic

Last reported at 2015-Aug-31 04:33 UTC. Time now 2015-Aug-31 04:47 UTC.
Position N 40°49' E 014°17'.

Type: Passenger vessel. MMSI: 308516000.

Date/timePositionNaut miles runAvg speedWind from/ knotsBaromVisibWave heightAir tempDewpointWater temp
2015-Aug-31 04:33N 40°49' E 014°17'1414.3
2015-Aug-31 03:34N 40°39' E 014°03'1313.4
2015-Aug-31 02:33N 40°38' E 013°46'1515.3
2015-Aug-31 01:34N 40°42' E 013°26'1515.1
2015-Aug-31 00:34N 40°45' E 013°07'1515.3
2015-Aug-30 23:33N 40°49' E 012°47'1616.0
2015-Aug-30 22:33N 40°52' E 012°26'1515.3
2015-Aug-30 21:33N 40°56' E 012°07'1515.2
2015-Aug-30 20:33N 40°60' E 011°47'1915.3
2015-Aug-30 19:20N 41°04' E 011°23'5815.4
2015-Aug-30 15:34N 41°17' E 010°08'1714.4
2015-Aug-30 14:22N 41°21' E 009°46'1215.2
2015-Aug-30 13:33N 41°24' E 009°30'13614.8
2015-Aug-30 04:22N 41°19' E 006°29'6015.4
2015-Aug-30 00:26N 41°18' E 005°08'1515.4
2015-Aug-29 23:27N 41°18' E 004°48'4515.2
2015-Aug-29 20:31N 41°17' E 003°49'1515.4
2015-Aug-29 19:32N 41°17' E 003°29'1615.5
2015-Aug-29 18:32N 41°17' E 003°08'1515.4
2015-Aug-29 17:33N 41°17' E 002°48'1515.3
2015-Aug-29 16:33N 41°17' E 002°27'1313.0
2015-Aug-29 15:32N 41°19' E 002°10'2 0.2
2015-Aug-29 04:24N 41°21' E 002°11'0 0.0
2015-Aug-29 03:30N 41°21' E 002°11'5 5.2
2015-Aug-29 02:33N 41°17' E 002°11'8 7.6
2015-Aug-29 01:32N 41°15' E 002°22'9 8.8
2015-Aug-29 00:33N 41°15' E 002°33'9 8.6
2015-Aug-28 23:33N 41°17' E 002°44'9 8.6
2015-Aug-28 22:32N 41°18' E 002°56'9 8.6
2015-Aug-28 21:30N 41°21' E 003°07'8 8.5
2015-Aug-28 20:32N 41°23' E 003°18'9 8.5
2015-Aug-28 19:26N 41°32' E 003°21'8 8.8
2015-Aug-28 18:33N 41°40' E 003°23'8 8.1
2015-Aug-28 17:33N 41°45' E 003°32'9 8.5
2015-Aug-28 16:31N 41°49' E 003°42'8 7.8
2015-Aug-28 15:33N 41°53' E 003°51'27 8.6
2015-Aug-28 12:26N 42°05' E 004°23'48 8.2
2015-Aug-28 06:33N 42°27' E 005°21'9 9.2
2015-Aug-28 05:33N 42°31' E 005°32'10 9.5
2015-Aug-28 04:33N 42°36' E 005°43'10 9.5
2015-Aug-28 03:33N 42°40' E 005°55'9 9.5
2015-Aug-28 02:33N 42°44' E 006°06'9 8.2
2015-Aug-28 01:30N 42°48' E 006°17'9 8.8
2015-Aug-28 00:28N 42°52' E 006°28'8 9.1
2015-Aug-27 23:33N 42°56' E 006°38'9 9.2
2015-Aug-27 22:33N 43°00' E 006°49'9 8.5
2015-Aug-27 21:33N 43°04' E 006°59'8 8.4
2015-Aug-27 20:33N 43°08' E 007°10'9 8.5
2015-Aug-27 19:33N 43°13' E 007°19'9 8.9
2015-Aug-27 18:33N 43°22' E 007°19'9 9.0
2015-Aug-27 17:33N 43°31' E 007°19'9 9.1
2015-Aug-27 16:33N 43°40' E 007°19'1 1.3
2015-Aug-27 15:32N 43°41' E 007°19'0 0.0
2015-Aug-27 14:14N 43°41' E 007°19'0 0.0
2015-Aug-27 13:32N 43°41' E 007°19'0 0.0
2015-Aug-27 12:32N 43°41' E 007°19'0 0.0
2015-Aug-27 11:32N 43°41' E 007°19'0 0.0
2015-Aug-27 10:32N 43°41' E 007°19'0 0.0
2015-Aug-27 09:32N 43°41' E 007°19'0 0.0
2015-Aug-27 08:32N 43°41' E 007°19'0 0.0
2015-Aug-27 07:32N 43°41' E 007°19'0 0.0
2015-Aug-27 06:26N 43°41' E 007°19'0 0.0
2015-Aug-27 05:32N 43°41' E 007°19'1 1.4
2015-Aug-27 04:31N 43°40' E 007°19'6 6.1
2015-Aug-27 03:33N 43°38' E 007°26'8 8.0
2015-Aug-27 02:33N 43°37' E 007°38'1010.0
2015-Aug-27 01:33N 43°37' E 007°51'1110.4
2015-Aug-27 00:29N 43°36' E 008°07'1213.1
2015-Aug-26 23:33N 43°35' E 008°23'1817.6
2015-Aug-26 22:33N 43°35' E 008°48'1717.1
2015-Aug-26 21:33N 43°34' E 009°11'1717.0
2015-Aug-26 20:33N 43°33' E 009°35'1716.9
2015-Aug-26 19:33N 43°31' E 009°58'1413.9
2015-Aug-26 18:33N 43°32' E 010°17'1 1.0
2015-Aug-26 17:31N 43°33' E 010°18'0 0.0
2015-Aug-26 16:28N 43°33' E 010°18'0 0.0
2015-Aug-26 15:28N 43°33' E 010°18'0 0.0
2015-Aug-26 14:28N 43°33' E 010°18'0 0.0
2015-Aug-26 13:28N 43°33' E 010°18'0 0.0
2015-Aug-26 12:31N 43°33' E 010°18'0 0.0
2015-Aug-26 11:31N 43°33' E 010°18'0 0.0
2015-Aug-26 10:28N 43°33' E 010°18'0 0.0
2015-Aug-26 09:31N 43°33' E 010°18'214 5.8
2015-Aug-24 20:33N 40°44' E 013°16'2216.1
2015-Aug-24 19:12N 40°38' E 013°43'1015.5
2015-Aug-24 18:33N 40°37' E 013°56'1616.0
2015-Aug-24 17:33N 40°46' E 014°13'4 1.1
2015-Aug-24 13:32N 40°50' E 014°16'0 0.0
2015-Aug-24 12:26N 40°50' E 014°16'0 0.0
2015-Aug-24 11:32N 40°50' E 014°16'0 0.0
2015-Aug-24 10:29N 40°50' E 014°16'0 0.0
2015-Aug-24 09:32N 40°50' E 014°16'0 0.0
2015-Aug-24 08:32N 40°50' E 014°16'0 0.0
2015-Aug-24 07:32N 40°50' E 014°16'0 0.0
2015-Aug-24 06:32N 40°50' E 014°16'0 0.0
2015-Aug-24 05:23N 40°50' E 014°16'2 2.2
2015-Aug-24 04:33N 40°49' E 014°17'1914.3
2015-Aug-24 03:13N 40°38' E 013°57'1116.3
2015-Aug-24 02:32N 40°39' E 013°43'3817.4
2015-Aug-24 00:20N 40°47' E 012°53'16214.8
2015-Aug-23 13:20N 41°22' E 009°23'12515.3
2015-Aug-23 05:10N 41°19' E 006°36'6415.6
2015-Aug-23 01:06N 41°18' E 005°12'8815.8
2015-Aug-22 19:33N 41°17' E 003°15'1615.7
2015-Aug-22 18:33N 41°17' E 002°54'1615.7
2015-Aug-22 17:33N 41°16' E 002°33'1615.6
2015-Aug-22 16:33N 41°16' E 002°13'5 0.4
2015-Aug-22 03:22N 41°21' E 002°11'5 6.2
2015-Aug-22 02:33N 41°16' E 002°12'8 8.4
2015-Aug-22 01:33N 41°15' E 002°23'8 7.8
2015-Aug-22 00:31N 41°15' E 002°33'8 8.3
2015-Aug-21 23:30N 41°17' E 002°44'8 8.4
2015-Aug-21 22:30N 41°18' E 002°55'8 8.4
2015-Aug-21 21:33N 41°19' E 003°06'8 8.3
2015-Aug-21 20:33N 41°21' E 003°17'10 7.2
2015-Aug-21 19:13N 41°26' E 003°28'  

Dump ship's entire track history